sensor_id;sensor_type;location;lat;lon;timestamp;P1;durP1;ratioP1;P2;durP2;ratioP2
41101;SDS011;26845;50.190;19.178;2022-11-15T00:01:06;40.98;;;24.75;;
41101;SDS011;26845;50.190;19.178;2022-11-15T00:03:35;38.02;;;23.45;;
41101;SDS011;26845;50.190;19.178;2022-11-15T00:06:02;33.90;;;20.80;;
41101;SDS011;26845;50.190;19.178;2022-11-15T00:08:31;35.50;;;21.77;;
41101;SDS011;26845;50.190;19.178;2022-11-15T00:11:00;34.18;;;20.60;;
41101;SDS011;26845;50.190;19.178;2022-11-15T00:13:28;30.43;;;19.75;;
41101;SDS011;26845;50.190;19.178;2022-11-15T00:16:13;30.68;;;19.40;;
41101;SDS011;26845;50.190;19.178;2022-11-15T00:18:40;27.32;;;17.35;;
41101;SDS011;26845;50.190;19.178;2022-11-15T00:21:11;28.32;;;17.92;;
41101;SDS011;26845;50.190;19.178;2022-11-15T00:23:37;27.17;;;16.87;;
41101;SDS011;26845;50.190;19.178;2022-11-15T00:26:05;29.48;;;18.12;;
41101;SDS011;26845;50.190;19.178;2022-11-15T00:28:32;25.72;;;16.75;;
41101;SDS011;26845;50.190;19.178;2022-11-15T00:31:02;25.92;;;17.10;;
41101;SDS011;26845;50.190;19.178;2022-11-15T00:33:32;30.72;;;18.82;;
41101;SDS011;26845;50.190;19.178;2022-11-15T00:36:04;28.02;;;17.85;;
41101;SDS011;26845;50.190;19.178;2022-11-15T00:38:44;29.95;;;17.70;;
41101;SDS011;26845;50.190;19.178;2022-11-15T00:41:00;32.60;;;19.77;;
41101;SDS011;26845;50.190;19.178;2022-11-15T00:43:29;28.17;;;18.50;;
41101;SDS011;26845;50.190;19.178;2022-11-15T00:45:55;29.75;;;16.87;;
41101;SDS011;26845;50.190;19.178;2022-11-15T00:48:22;25.23;;;16.60;;
41101;SDS011;26845;50.190;19.178;2022-11-15T00:50:49;31.07;;;18.95;;
41101;SDS011;26845;50.190;19.178;2022-11-15T00:53:16;26.23;;;17.10;;
41101;SDS011;26845;50.190;19.178;2022-11-15T00:55:43;26.45;;;17.05;;
41101;SDS011;26845;50.190;19.178;2022-11-15T00:58:10;31.90;;;19.30;;
41101;SDS011;26845;50.190;19.178;2022-11-15T01:00:37;29.63;;;18.65;;
41101;SDS011;26845;50.190;19.178;2022-11-15T01:03:03;26.25;;;16.97;;
41101;SDS011;26845;50.190;19.178;2022-11-15T01:05:30;27.15;;;17.95;;
41101;SDS011;26845;50.190;19.178;2022-11-15T01:07:56;28.52;;;18.52;;
41101;SDS011;26845;50.190;19.178;2022-11-15T01:10:23;24.47;;;15.75;;
41101;SDS011;26845;50.190;19.178;2022-11-15T01:12:51;25.23;;;16.27;;
41101;SDS011;26845;50.190;19.178;2022-11-15T01:15:18;24.18;;;16.27;;
41101;SDS011;26845;50.190;19.178;2022-11-15T01:17:45;30.35;;;17.55;;
41101;SDS011;26845;50.190;19.178;2022-11-15T01:20:11;26.90;;;17.05;;
41101;SDS011;26845;50.190;19.178;2022-11-15T01:22:39;25.48;;;16.55;;
41101;SDS011;26845;50.190;19.178;2022-11-15T01:25:08;28.05;;;17.00;;
41101;SDS011;26845;50.190;19.178;2022-11-15T01:27:34;24.18;;;14.83;;
41101;SDS011;26845;50.190;19.178;2022-11-15T01:30:01;27.25;;;16.67;;
41101;SDS011;26845;50.190;19.178;2022-11-15T01:32:28;29.23;;;17.50;;
41101;SDS011;26845;50.190;19.178;2022-11-15T01:34:55;24.85;;;16.60;;
41101;SDS011;26845;50.190;19.178;2022-11-15T01:37:23;22.42;;;14.55;;
41101;SDS011;26845;50.190;19.178;2022-11-15T01:39:50;25.15;;;15.45;;
41101;SDS011;26845;50.190;19.178;2022-11-15T01:42:16;26.40;;;16.45;;
41101;SDS011;26845;50.190;19.178;2022-11-15T01:44:47;27.35;;;16.67;;
41101;SDS011;26845;50.190;19.178;2022-11-15T01:47:27;28.50;;;16.97;;
41101;SDS011;26845;50.190;19.178;2022-11-15T01:50:04;28.30;;;17.82;;
41101;SDS011;26845;50.190;19.178;2022-11-15T01:52:37;27.52;;;17.95;;
41101;SDS011;26845;50.190;19.178;2022-11-15T01:55:19;29.63;;;17.40;;
41101;SDS011;26845;50.190;19.178;2022-11-15T01:57:50;25.43;;;16.57;;
41101;SDS011;26845;50.190;19.178;2022-11-15T02:00:21;25.35;;;15.70;;
41101;SDS011;26845;50.190;19.178;2022-11-15T02:02:50;25.37;;;16.82;;
41101;SDS011;26845;50.190;19.178;2022-11-15T02:05:17;25.65;;;16.73;;
41101;SDS011;26845;50.190;19.178;2022-11-15T02:07:44;30.50;;;18.57;;
41101;SDS011;26845;50.190;19.178;2022-11-15T02:10:18;27.62;;;16.25;;
41101;SDS011;26845;50.190;19.178;2022-11-15T02:12:50;29.07;;;17.20;;
41101;SDS011;26845;50.190;19.178;2022-11-15T02:15:18;26.33;;;16.37;;
41101;SDS011;26845;50.190;19.178;2022-11-15T02:29:07;26.70;;;17.07;;
41101;SDS011;26845;50.190;19.178;2022-11-15T02:40:41;29.67;;;17.45;;
41101;SDS011;26845;50.190;19.178;2022-11-15T02:46:39;29.10;;;18.02;;
41101;SDS011;26845;50.190;19.178;2022-11-15T02:49:34;26.82;;;16.40;;
41101;SDS011;26845;50.190;19.178;2022-11-15T02:52:03;28.20;;;18.12;;
41101;SDS011;26845;50.190;19.178;2022-11-15T02:54:30;27.67;;;16.50;;
41101;SDS011;26845;50.190;19.178;2022-11-15T02:57:01;27.55;;;17.27;;
41101;SDS011;26845;50.190;19.178;2022-11-15T03:02:27;29.27;;;18.20;;
41101;SDS011;26845;50.190;19.178;2022-11-15T03:08:14;25.00;;;15.60;;
41101;SDS011;26845;50.190;19.178;2022-11-15T03:25:31;19.77;;;13.38;;
41101;SDS011;26845;50.190;19.178;2022-11-15T03:27:57;22.37;;;15.43;;
41101;SDS011;26845;50.190;19.178;2022-11-15T03:30:27;21.10;;;14.40;;
41101;SDS011;26845;50.190;19.178;2022-11-15T03:32:57;22.82;;;14.78;;
41101;SDS011;26845;50.190;19.178;2022-11-15T03:35:27;20.57;;;14.30;;
41101;SDS011;26845;50.190;19.178;2022-11-15T03:38:14;26.12;;;15.53;;
41101;SDS011;26845;50.190;19.178;2022-11-15T03:40:58;20.92;;;13.83;;
41101;SDS011;26845;50.190;19.178;2022-11-15T03:46:16;20.82;;;14.00;;
41101;SDS011;26845;50.190;19.178;2022-11-15T03:48:54;18.23;;;12.53;;
41101;SDS011;26845;50.190;19.178;2022-11-15T03:51:37;20.60;;;13.32;;
41101;SDS011;26845;50.190;19.178;2022-11-15T03:54:05;23.22;;;14.43;;
41101;SDS011;26845;50.190;19.178;2022-11-15T03:56:32;15.58;;;11.97;;
41101;SDS011;26845;50.190;19.178;2022-11-15T03:58:59;18.82;;;13.03;;
41101;SDS011;26845;50.190;19.178;2022-11-15T04:01:25;19.77;;;13.45;;
41101;SDS011;26845;50.190;19.178;2022-11-15T04:03:52;16.57;;;11.78;;
41101;SDS011;26845;50.190;19.178;2022-11-15T04:06:18;19.57;;;13.08;;
41101;SDS011;26845;50.190;19.178;2022-11-15T04:08:45;18.70;;;13.08;;
41101;SDS011;26845;50.190;19.178;2022-11-15T04:11:12;22.07;;;14.73;;
41101;SDS011;26845;50.190;19.178;2022-11-15T04:13:38;26.00;;;15.45;;
41101;SDS011;26845;50.190;19.178;2022-11-15T04:16:05;18.98;;;13.03;;
41101;SDS011;26845;50.190;19.178;2022-11-15T04:18:32;21.05;;;13.83;;
41101;SDS011;26845;50.190;19.178;2022-11-15T04:21:00;22.25;;;14.30;;
41101;SDS011;26845;50.190;19.178;2022-11-15T04:23:45;19.67;;;13.48;;
41101;SDS011;26845;50.190;19.178;2022-11-15T04:26:30;20.10;;;13.80;;
41101;SDS011;26845;50.190;19.178;2022-11-15T04:28:57;20.02;;;13.32;;
41101;SDS011;26845;50.190;19.178;2022-11-15T04:31:41;21.73;;;14.05;;
41101;SDS011;26845;50.190;19.178;2022-11-15T04:34:08;18.07;;;11.88;;
41101;SDS011;26845;50.190;19.178;2022-11-15T04:36:34;20.08;;;13.70;;
41101;SDS011;26845;50.190;19.178;2022-11-15T04:39:19;22.75;;;14.18;;
41101;SDS011;26845;50.190;19.178;2022-11-15T04:41:46;21.40;;;13.38;;
41101;SDS011;26845;50.190;19.178;2022-11-15T04:44:13;21.70;;;14.13;;
41101;SDS011;26845;50.190;19.178;2022-11-15T04:46:39;18.35;;;13.13;;
41101;SDS011;26845;50.190;19.178;2022-11-15T04:49:06;19.00;;;13.05;;
41101;SDS011;26845;50.190;19.178;2022-11-15T04:51:32;23.70;;;15.28;;
41101;SDS011;26845;50.190;19.178;2022-11-15T04:53:59;18.57;;;13.60;;
41101;SDS011;26845;50.190;19.178;2022-11-15T04:56:26;22.32;;;14.35;;
41101;SDS011;26845;50.190;19.178;2022-11-15T04:58:52;23.18;;;14.83;;
41101;SDS011;26845;50.190;19.178;2022-11-15T05:01:19;22.48;;;14.20;;
41101;SDS011;26845;50.190;19.178;2022-11-15T05:03:45;18.23;;;13.10;;
41101;SDS011;26845;50.190;19.178;2022-11-15T05:06:31;23.27;;;14.58;;
41101;SDS011;26845;50.190;19.178;2022-11-15T05:08:57;20.72;;;13.30;;
41101;SDS011;26845;50.190;19.178;2022-11-15T05:11:24;20.65;;;13.80;;
41101;SDS011;26845;50.190;19.178;2022-11-15T05:13:53;18.87;;;12.50;;
41101;SDS011;26845;50.190;19.178;2022-11-15T05:16:20;20.60;;;12.85;;
41101;SDS011;26845;50.190;19.178;2022-11-15T05:18:50;21.33;;;14.00;;
41101;SDS011;26845;50.190;19.178;2022-11-15T05:21:20;18.77;;;12.07;;
41101;SDS011;26845;50.190;19.178;2022-11-15T05:23:48;17.25;;;11.83;;
41101;SDS011;26845;50.190;19.178;2022-11-15T05:26:15;17.60;;;12.35;;
41101;SDS011;26845;50.190;19.178;2022-11-15T05:28:43;15.53;;;10.53;;
41101;SDS011;26845;50.190;19.178;2022-11-15T05:31:11;16.55;;;12.18;;
41101;SDS011;26845;50.190;19.178;2022-11-15T05:33:42;16.70;;;11.55;;
41101;SDS011;26845;50.190;19.178;2022-11-15T05:36:30;16.02;;;11.45;;
41101;SDS011;26845;50.190;19.178;2022-11-15T05:39:06;16.55;;;11.70;;
41101;SDS011;26845;50.190;19.178;2022-11-15T05:41:34;21.10;;;13.05;;
41101;SDS011;26845;50.190;19.178;2022-11-15T05:44:06;19.90;;;12.68;;
41101;SDS011;26845;50.190;19.178;2022-11-15T05:46:35;19.23;;;12.55;;
41101;SDS011;26845;50.190;19.178;2022-11-15T05:49:04;16.90;;;11.20;;
41101;SDS011;26845;50.190;19.178;2022-11-15T05:51:33;17.52;;;11.90;;
41101;SDS011;26845;50.190;19.178;2022-11-15T05:54:00;17.60;;;11.70;;
41101;SDS011;26845;50.190;19.178;2022-11-15T05:56:28;19.82;;;12.85;;
41101;SDS011;26845;50.190;19.178;2022-11-15T05:58:59;16.32;;;10.82;;
41101;SDS011;26845;50.190;19.178;2022-11-15T06:01:26;15.05;;;10.48;;
41101;SDS011;26845;50.190;19.178;2022-11-15T06:03:53;18.48;;;11.60;;
41101;SDS011;26845;50.190;19.178;2022-11-15T06:06:20;16.75;;;11.35;;
41101;SDS011;26845;50.190;19.178;2022-11-15T06:08:47;16.80;;;10.80;;
41101;SDS011;26845;50.190;19.178;2022-11-15T06:11:14;17.95;;;11.55;;
41101;SDS011;26845;50.190;19.178;2022-11-15T06:13:41;16.95;;;11.53;;
41101;SDS011;26845;50.190;19.178;2022-11-15T06:16:07;13.85;;;10.08;;
41101;SDS011;26845;50.190;19.178;2022-11-15T06:18:34;13.32;;;9.13;;
41101;SDS011;26845;50.190;19.178;2022-11-15T06:21:02;15.32;;;9.88;;
41101;SDS011;26845;50.190;19.178;2022-11-15T06:23:31;14.98;;;9.53;;
41101;SDS011;26845;50.190;19.178;2022-11-15T06:26:01;15.83;;;10.25;;
41101;SDS011;26845;50.190;19.178;2022-11-15T06:28:29;16.90;;;11.22;;
41101;SDS011;26845;50.190;19.178;2022-11-15T06:31:06;17.70;;;11.38;;
41101;SDS011;26845;50.190;19.178;2022-11-15T06:33:38;18.48;;;12.00;;
41101;SDS011;26845;50.190;19.178;2022-11-15T06:36:07;16.12;;;10.95;;
41101;SDS011;26845;50.190;19.178;2022-11-15T06:38:36;16.48;;;11.28;;
41101;SDS011;26845;50.190;19.178;2022-11-15T06:41:03;17.32;;;10.53;;
41101;SDS011;26845;50.190;19.178;2022-11-15T06:43:32;18.05;;;11.05;;
41101;SDS011;26845;50.190;19.178;2022-11-15T06:46:01;16.62;;;11.55;;
41101;SDS011;26845;50.190;19.178;2022-11-15T06:48:30;20.37;;;12.25;;
41101;SDS011;26845;50.190;19.178;2022-11-15T06:50:59;18.85;;;12.73;;
41101;SDS011;26845;50.190;19.178;2022-11-15T06:53:27;18.98;;;12.05;;
41101;SDS011;26845;50.190;19.178;2022-11-15T06:55:57;19.57;;;12.95;;
41101;SDS011;26845;50.190;19.178;2022-11-15T06:58:27;24.60;;;14.58;;
41101;SDS011;26845;50.190;19.178;2022-11-15T07:00:57;20.55;;;12.82;;
41101;SDS011;26845;50.190;19.178;2022-11-15T07:03:31;21.35;;;12.88;;
41101;SDS011;26845;50.190;19.178;2022-11-15T07:06:02;19.02;;;11.85;;
41101;SDS011;26845;50.190;19.178;2022-11-15T07:08:29;21.25;;;13.13;;
41101;SDS011;26845;50.190;19.178;2022-11-15T07:11:00;21.07;;;13.40;;
41101;SDS011;26845;50.190;19.178;2022-11-15T07:13:30;22.85;;;13.78;;
41101;SDS011;26845;50.190;19.178;2022-11-15T07:16:03;27.85;;;18.40;;
41101;SDS011;26845;50.190;19.178;2022-11-15T07:18:36;22.62;;;15.40;;
41101;SDS011;26845;50.190;19.178;2022-11-15T07:21:08;20.68;;;12.60;;
41101;SDS011;26845;50.190;19.178;2022-11-15T07:23:39;18.45;;;12.30;;
41101;SDS011;26845;50.190;19.178;2022-11-15T07:26:06;19.55;;;12.90;;
41101;SDS011;26845;50.190;19.178;2022-11-15T07:28:34;20.52;;;12.98;;
41101;SDS011;26845;50.190;19.178;2022-11-15T07:31:06;19.57;;;12.55;;
41101;SDS011;26845;50.190;19.178;2022-11-15T07:33:32;22.32;;;13.45;;
41101;SDS011;26845;50.190;19.178;2022-11-15T07:36:00;22.52;;;13.68;;
41101;SDS011;26845;50.190;19.178;2022-11-15T07:38:29;19.67;;;13.47;;
41101;SDS011;26845;50.190;19.178;2022-11-15T07:41:02;20.45;;;13.18;;
41101;SDS011;26845;50.190;19.178;2022-11-15T07:43:31;18.87;;;12.25;;
41101;SDS011;26845;50.190;19.178;2022-11-15T07:46:07;20.70;;;14.15;;
41101;SDS011;26845;50.190;19.178;2022-11-15T07:48:36;21.60;;;14.35;;
41101;SDS011;26845;50.190;19.178;2022-11-15T07:51:06;21.35;;;14.68;;
41101;SDS011;26845;50.190;19.178;2022-11-15T07:53:33;19.60;;;13.45;;
41101;SDS011;26845;50.190;19.178;2022-11-15T07:56:00;17.05;;;12.33;;
41101;SDS011;26845;50.190;19.178;2022-11-15T07:58:26;20.57;;;13.53;;
41101;SDS011;26845;50.190;19.178;2022-11-15T08:00:53;19.20;;;13.13;;
41101;SDS011;26845;50.190;19.178;2022-11-15T08:03:20;19.12;;;12.98;;
41101;SDS011;26845;50.190;19.178;2022-11-15T08:05:51;17.75;;;12.50;;
41101;SDS011;26845;50.190;19.178;2022-11-15T08:08:18;18.40;;;12.85;;
41101;SDS011;26845;50.190;19.178;2022-11-15T08:10:45;20.43;;;13.22;;
41101;SDS011;26845;50.190;19.178;2022-11-15T08:13:11;23.85;;;14.25;;
41101;SDS011;26845;50.190;19.178;2022-11-15T08:15:39;19.73;;;13.53;;
41101;SDS011;26845;50.190;19.178;2022-11-15T08:18:08;19.50;;;12.75;;
41101;SDS011;26845;50.190;19.178;2022-11-15T08:20:39;19.82;;;13.00;;
41101;SDS011;26845;50.190;19.178;2022-11-15T08:23:07;20.30;;;13.15;;
41101;SDS011;26845;50.190;19.178;2022-11-15T08:25:36;21.07;;;14.10;;
41101;SDS011;26845;50.190;19.178;2022-11-15T08:28:04;16.50;;;11.80;;
41101;SDS011;26845;50.190;19.178;2022-11-15T08:30:39;18.85;;;12.90;;
41101;SDS011;26845;50.190;19.178;2022-11-15T08:33:12;24.57;;;14.75;;
41101;SDS011;26845;50.190;19.178;2022-11-15T08:35:42;24.32;;;14.87;;
41101;SDS011;26845;50.190;19.178;2022-11-15T08:38:10;30.05;;;19.20;;
41101;SDS011;26845;50.190;19.178;2022-11-15T08:40:37;26.15;;;16.80;;
41101;SDS011;26845;50.190;19.178;2022-11-15T08:43:07;28.20;;;17.27;;
41101;SDS011;26845;50.190;19.178;2022-11-15T08:45:34;30.27;;;17.80;;
41101;SDS011;26845;50.190;19.178;2022-11-15T08:48:02;28.12;;;17.25;;
41101;SDS011;26845;50.190;19.178;2022-11-15T08:50:30;28.87;;;16.27;;
41101;SDS011;26845;50.190;19.178;2022-11-15T08:52:56;29.63;;;17.00;;
41101;SDS011;26845;50.190;19.178;2022-11-15T08:55:24;27.07;;;17.37;;
41101;SDS011;26845;50.190;19.178;2022-11-15T08:57:50;22.65;;;14.30;;
41101;SDS011;26845;50.190;19.178;2022-11-15T09:00:17;22.87;;;14.80;;
41101;SDS011;26845;50.190;19.178;2022-11-15T09:02:46;23.07;;;14.40;;
41101;SDS011;26845;50.190;19.178;2022-11-15T09:05:13;21.35;;;14.65;;
41101;SDS011;26845;50.190;19.178;2022-11-15T09:07:41;23.47;;;15.40;;
41101;SDS011;26845;50.190;19.178;2022-11-15T09:10:08;23.18;;;15.28;;
41101;SDS011;26845;50.190;19.178;2022-11-15T09:12:35;23.90;;;15.60;;
41101;SDS011;26845;50.190;19.178;2022-11-15T09:15:03;27.73;;;16.45;;
41101;SDS011;26845;50.190;19.178;2022-11-15T09:17:35;25.27;;;16.17;;
41101;SDS011;26845;50.190;19.178;2022-11-15T09:20:02;26.23;;;17.62;;
41101;SDS011;26845;50.190;19.178;2022-11-15T09:22:30;26.60;;;17.15;;
41101;SDS011;26845;50.190;19.178;2022-11-15T09:24:57;26.80;;;16.60;;
41101;SDS011;26845;50.190;19.178;2022-11-15T09:27:27;31.52;;;18.62;;
41101;SDS011;26845;50.190;19.178;2022-11-15T09:29:56;30.90;;;17.85;;
41101;SDS011;26845;50.190;19.178;2022-11-15T09:32:22;30.85;;;17.95;;
41101;SDS011;26845;50.190;19.178;2022-11-15T09:34:50;34.53;;;19.00;;
41101;SDS011;26845;50.190;19.178;2022-11-15T09:37:16;31.48;;;18.02;;
41101;SDS011;26845;50.190;19.178;2022-11-15T09:39:43;34.88;;;18.95;;
41101;SDS011;26845;50.190;19.178;2022-11-15T09:45:10;33.35;;;18.73;;
41101;SDS011;26845;50.190;19.178;2022-11-15T09:50:49;35.50;;;20.80;;
41101;SDS011;26845;50.190;19.178;2022-11-15T09:53:31;34.43;;;21.02;;
41101;SDS011;26845;50.190;19.178;2022-11-15T09:56:00;38.13;;;21.82;;
41101;SDS011;26845;50.190;19.178;2022-11-15T10:04:38;41.60;;;22.55;;
41101;SDS011;26845;50.190;19.178;2022-11-15T10:12:55;39.63;;;23.57;;
41101;SDS011;26845;50.190;19.178;2022-11-15T10:15:23;35.05;;;22.37;;
41101;SDS011;26845;50.190;19.178;2022-11-15T10:20:55;34.50;;;23.15;;
41101;SDS011;26845;50.190;19.178;2022-11-15T10:23:22;35.60;;;22.82;;
41101;SDS011;26845;50.190;19.178;2022-11-15T10:25:51;35.38;;;23.50;;
41101;SDS011;26845;50.190;19.178;2022-11-15T10:28:28;35.30;;;23.95;;
41101;SDS011;26845;50.190;19.178;2022-11-15T10:31:00;36.80;;;23.87;;
41101;SDS011;26845;50.190;19.178;2022-11-15T10:41:22;33.30;;;24.00;;
41101;SDS011;26845;50.190;19.178;2022-11-15T10:49:29;30.20;;;22.15;;
41101;SDS011;26845;50.190;19.178;2022-11-15T10:52:00;27.90;;;20.45;;
41101;SDS011;26845;50.190;19.178;2022-11-15T10:57:19;26.97;;;20.08;;
41101;SDS011;26845;50.190;19.178;2022-11-15T10:59:51;28.90;;;20.45;;
41101;SDS011;26845;50.190;19.178;2022-11-15T11:05:27;26.17;;;19.90;;
41101;SDS011;26845;50.190;19.178;2022-11-15T11:08:02;29.07;;;20.77;;
41101;SDS011;26845;50.190;19.178;2022-11-15T11:10:54;35.45;;;23.75;;
41101;SDS011;26845;50.190;19.178;2022-11-15T11:13:25;34.27;;;22.95;;
41101;SDS011;26845;50.190;19.178;2022-11-15T11:18:34;39.98;;;25.80;;
41101;SDS011;26845;50.190;19.178;2022-11-15T11:21:15;37.38;;;25.00;;
41101;SDS011;26845;50.190;19.178;2022-11-15T11:23:59;40.70;;;27.32;;
41101;SDS011;26845;50.190;19.178;2022-11-15T11:26:48;40.48;;;27.48;;
41101;SDS011;26845;50.190;19.178;2022-11-15T11:33:01;37.35;;;26.17;;
41101;SDS011;26845;50.190;19.178;2022-11-15T11:41:27;41.75;;;27.52;;
41101;SDS011;26845;50.190;19.178;2022-11-15T11:57:51;42.73;;;26.17;;
41101;SDS011;26845;50.190;19.178;2022-11-15T12:00:33;41.58;;;27.55;;
41101;SDS011;26845;50.190;19.178;2022-11-15T12:05:49;42.50;;;27.80;;
41101;SDS011;26845;50.190;19.178;2022-11-15T12:11:19;42.00;;;27.13;;
41101;SDS011;26845;50.190;19.178;2022-11-15T12:14:25;44.48;;;27.37;;
41101;SDS011;26845;50.190;19.178;2022-11-15T12:17:01;46.45;;;28.35;;
41101;SDS011;26845;50.190;19.178;2022-11-15T12:19:29;45.78;;;28.02;;
41101;SDS011;26845;50.190;19.178;2022-11-15T12:22:02;44.30;;;27.58;;
41101;SDS011;26845;50.190;19.178;2022-11-15T12:24:34;44.93;;;26.97;;
41101;SDS011;26845;50.190;19.178;2022-11-15T12:27:15;43.10;;;27.07;;
41101;SDS011;26845;50.190;19.178;2022-11-15T12:29:48;44.40;;;27.77;;
41101;SDS011;26845;50.190;19.178;2022-11-15T12:32:32;42.20;;;27.15;;
41101;SDS011;26845;50.190;19.178;2022-11-15T12:35:03;43.38;;;26.90;;
41101;SDS011;26845;50.190;19.178;2022-11-15T12:45:43;45.20;;;27.27;;
41101;SDS011;26845;50.190;19.178;2022-11-15T12:51:05;40.83;;;26.90;;
41101;SDS011;26845;50.190;19.178;2022-11-15T12:53:33;42.90;;;26.55;;
41101;SDS011;26845;50.190;19.178;2022-11-15T13:06:51;41.63;;;27.35;;
41101;SDS011;26845;50.190;19.178;2022-11-15T13:18:47;45.05;;;27.62;;
41101;SDS011;26845;50.190;19.178;2022-11-15T13:20:54;43.50;;;27.35;;
41101;SDS011;26845;50.190;19.178;2022-11-15T13:23:21;47.88;;;29.07;;
41101;SDS011;26845;50.190;19.178;2022-11-15T13:28:43;48.25;;;28.50;;
41101;SDS011;26845;50.190;19.178;2022-11-15T13:34:15;45.88;;;29.63;;
41101;SDS011;26845;50.190;19.178;2022-11-15T13:36:48;45.48;;;28.92;;
41101;SDS011;26845;50.190;19.178;2022-11-15T13:39:31;43.28;;;28.57;;
41101;SDS011;26845;50.190;19.178;2022-11-15T13:42:02;47.65;;;29.18;;
41101;SDS011;26845;50.190;19.178;2022-11-15T13:44:30;45.10;;;27.37;;
41101;SDS011;26845;50.190;19.178;2022-11-15T13:49:43;46.55;;;29.00;;
41101;SDS011;26845;50.190;19.178;2022-11-15T13:52:18;45.15;;;28.87;;
41101;SDS011;26845;50.190;19.178;2022-11-15T13:54:57;44.00;;;28.57;;
41101;SDS011;26845;50.190;19.178;2022-11-15T13:57:42;39.18;;;27.00;;
41101;SDS011;26845;50.190;19.178;2022-11-15T14:03:12;45.52;;;27.10;;
41101;SDS011;26845;50.190;19.178;2022-11-15T14:06:02;41.60;;;27.98;;
41101;SDS011;26845;50.190;19.178;2022-11-15T14:08:42;42.60;;;27.40;;
41101;SDS011;26845;50.190;19.178;2022-11-15T14:11:29;40.43;;;27.73;;
41101;SDS011;26845;50.190;19.178;2022-11-15T14:16:40;52.55;;;30.23;;
41101;SDS011;26845;50.190;19.178;2022-11-15T14:19:13;44.75;;;29.82;;
41101;SDS011;26845;50.190;19.178;2022-11-15T14:30:46;51.55;;;33.42;;
41101;SDS011;26845;50.190;19.178;2022-11-15T14:36:19;55.03;;;33.50;;
41101;SDS011;26845;50.190;19.178;2022-11-15T14:38:49;52.50;;;32.10;;
41101;SDS011;26845;50.190;19.178;2022-11-15T14:41:23;55.12;;;34.10;;
41101;SDS011;26845;50.190;19.178;2022-11-15T14:43:52;52.48;;;33.65;;
41101;SDS011;26845;50.190;19.178;2022-11-15T14:46:19;52.55;;;32.67;;
41101;SDS011;26845;50.190;19.178;2022-11-15T14:48:46;50.88;;;31.60;;
41101;SDS011;26845;50.190;19.178;2022-11-15T14:51:13;55.35;;;34.85;;
41101;SDS011;26845;50.190;19.178;2022-11-15T14:53:43;53.33;;;31.73;;
41101;SDS011;26845;50.190;19.178;2022-11-15T14:56:14;50.95;;;31.62;;
41101;SDS011;26845;50.190;19.178;2022-11-15T14:58:45;54.70;;;34.03;;
41101;SDS011;26845;50.190;19.178;2022-11-15T15:01:27;52.90;;;32.95;;
41101;SDS011;26845;50.190;19.178;2022-11-15T15:03:53;46.88;;;29.67;;
41101;SDS011;26845;50.190;19.178;2022-11-15T15:06:24;53.92;;;33.83;;
41101;SDS011;26845;50.190;19.178;2022-11-15T15:08:52;49.40;;;32.33;;
41101;SDS011;26845;50.190;19.178;2022-11-15T15:11:23;53.05;;;32.53;;
41101;SDS011;26845;50.190;19.178;2022-11-15T15:13:55;48.48;;;31.42;;
41101;SDS011;26845;50.190;19.178;2022-11-15T15:16:24;52.45;;;32.25;;
41101;SDS011;26845;50.190;19.178;2022-11-15T15:18:53;49.77;;;30.17;;
41101;SDS011;26845;50.190;19.178;2022-11-15T15:21:24;50.40;;;31.73;;
41101;SDS011;26845;50.190;19.178;2022-11-15T15:23:57;48.08;;;30.68;;
41101;SDS011;26845;50.190;19.178;2022-11-15T15:26:24;49.75;;;30.72;;
41101;SDS011;26845;50.190;19.178;2022-11-15T15:28:51;54.30;;;31.75;;
41101;SDS011;26845;50.190;19.178;2022-11-15T15:31:18;49.98;;;28.25;;
41101;SDS011;26845;50.190;19.178;2022-11-15T15:33:46;43.42;;;27.42;;
41101;SDS011;26845;50.190;19.178;2022-11-15T15:36:14;52.67;;;31.52;;
41101;SDS011;26845;50.190;19.178;2022-11-15T15:38:47;56.18;;;34.50;;
41101;SDS011;26845;50.190;19.178;2022-11-15T15:41:14;64.42;;;35.75;;
41101;SDS011;26845;50.190;19.178;2022-11-15T15:43:43;56.08;;;33.40;;
41101;SDS011;26845;50.190;19.178;2022-11-15T15:46:14;53.80;;;32.93;;
41101;SDS011;26845;50.190;19.178;2022-11-15T15:48:45;49.77;;;31.15;;
41101;SDS011;26845;50.190;19.178;2022-11-15T15:51:13;47.15;;;30.80;;
41101;SDS011;26845;50.190;19.178;2022-11-15T15:53:39;50.05;;;30.80;;
41101;SDS011;26845;50.190;19.178;2022-11-15T15:56:06;53.73;;;32.15;;
41101;SDS011;26845;50.190;19.178;2022-11-15T15:58:34;50.05;;;30.65;;
41101;SDS011;26845;50.190;19.178;2022-11-15T16:01:01;62.98;;;37.42;;
41101;SDS011;26845;50.190;19.178;2022-11-15T16:03:29;54.63;;;31.73;;
41101;SDS011;26845;50.190;19.178;2022-11-15T16:05:57;47.80;;;31.73;;
41101;SDS011;26845;50.190;19.178;2022-11-15T16:08:25;49.73;;;30.82;;
41101;SDS011;26845;50.190;19.178;2022-11-15T16:10:55;54.30;;;34.08;;
41101;SDS011;26845;50.190;19.178;2022-11-15T16:13:22;47.85;;;30.08;;
41101;SDS011;26845;50.190;19.178;2022-11-15T16:15:50;59.73;;;35.52;;
41101;SDS011;26845;50.190;19.178;2022-11-15T16:18:22;45.48;;;30.55;;
41101;SDS011;26845;50.190;19.178;2022-11-15T16:20:49;46.77;;;30.82;;
41101;SDS011;26845;50.190;19.178;2022-11-15T16:23:18;61.85;;;39.18;;
41101;SDS011;26845;50.190;19.178;2022-11-15T16:25:48;49.98;;;31.55;;
41101;SDS011;26845;50.190;19.178;2022-11-15T16:28:24;49.25;;;30.17;;
41101;SDS011;26845;50.190;19.178;2022-11-15T16:31:01;46.10;;;27.70;;
41101;SDS011;26845;50.190;19.178;2022-11-15T16:33:37;55.70;;;33.40;;
41101;SDS011;26845;50.190;19.178;2022-11-15T16:36:14;49.95;;;29.65;;
41101;SDS011;26845;50.190;19.178;2022-11-15T16:38:50;45.50;;;29.13;;
41101;SDS011;26845;50.190;19.178;2022-11-15T16:41:19;50.00;;;31.85;;
41101;SDS011;26845;50.190;19.178;2022-11-15T16:43:47;50.78;;;32.50;;
41101;SDS011;26845;50.190;19.178;2022-11-15T16:46:21;52.35;;;33.15;;
41101;SDS011;26845;50.190;19.178;2022-11-15T16:48:54;50.28;;;30.52;;
41101;SDS011;26845;50.190;19.178;2022-11-15T16:51:24;49.75;;;30.68;;
41101;SDS011;26845;50.190;19.178;2022-11-15T16:53:52;55.10;;;33.05;;
41101;SDS011;26845;50.190;19.178;2022-11-15T16:56:27;61.00;;;35.03;;
41101;SDS011;26845;50.190;19.178;2022-11-15T16:58:56;56.58;;;34.80;;
41101;SDS011;26845;50.190;19.178;2022-11-15T17:01:28;63.30;;;36.00;;
41101;SDS011;26845;50.190;19.178;2022-11-15T17:04:01;61.15;;;37.65;;
41101;SDS011;26845;50.190;19.178;2022-11-15T17:06:38;59.67;;;35.60;;
41101;SDS011;26845;50.190;19.178;2022-11-15T17:09:07;61.73;;;38.40;;
41101;SDS011;26845;50.190;19.178;2022-11-15T17:11:44;56.18;;;34.13;;
41101;SDS011;26845;50.190;19.178;2022-11-15T17:14:11;56.37;;;34.40;;
41101;SDS011;26845;50.190;19.178;2022-11-15T17:16:38;56.77;;;34.63;;
41101;SDS011;26845;50.190;19.178;2022-11-15T17:19:14;56.92;;;35.92;;
41101;SDS011;26845;50.190;19.178;2022-11-15T17:21:43;66.87;;;40.80;;
41101;SDS011;26845;50.190;19.178;2022-11-15T17:24:11;59.77;;;37.08;;